createdAt,value
2023-04-29T00:01:48.935Z,37.55
2023-04-29T00:04:55.529Z,38.19
2023-04-29T00:08:01.271Z,38.54
2023-04-29T00:11:07.808Z,38.32
2023-04-29T00:14:16.704Z,38.81
2023-04-29T00:17:23.195Z,39.65
2023-04-29T00:20:28.661Z,38.70
2023-04-29T00:23:36.032Z,38.63
2023-04-29T00:26:41.577Z,39.05
2023-04-29T00:29:50.829Z,39.98
2023-04-29T00:32:56.467Z,40.41
2023-04-29T00:36:02.852Z,39.54
2023-04-29T00:39:08.349Z,39.87
2023-04-29T00:42:15.292Z,40.45
2023-04-29T00:45:24.104Z,40.44
2023-04-29T00:48:30.618Z,40.72
2023-04-29T00:51:36.592Z,41.09
2023-04-29T00:54:44.780Z,40.77
2023-04-29T00:57:52.932Z,40.73
2023-04-29T01:01:02.935Z,40.09
2023-04-29T01:04:09.448Z,40.20
2023-04-29T01:07:21.544Z,40.40
2023-04-29T01:10:33.978Z,39.90
2023-04-29T01:13:49.666Z,39.55
2023-04-29T01:17:09.484Z,40.05
2023-04-29T01:20:17.222Z,40.17
2023-04-29T01:23:23.654Z,39.97
2023-04-29T01:26:37.161Z,40.41
2023-04-29T01:30:38.430Z,40.62
2023-04-29T01:33:54.226Z,40.19
2023-04-29T01:37:19.799Z,40.63
2023-04-29T01:40:41.817Z,41.47
2023-04-29T01:44:02.089Z,40.99
2023-04-29T01:47:10.140Z,41.16
2023-04-29T01:50:22.243Z,40.90
2023-04-29T01:53:27.913Z,41.54
2023-04-29T01:56:34.319Z,41.74
2023-04-29T01:59:48.343Z,41.53
2023-04-29T02:03:37.262Z,42.05
2023-04-29T02:06:45.921Z,42.17
2023-04-29T02:09:52.606Z,42.61
2023-04-29T02:12:58.374Z,41.85
2023-04-29T02:16:15.722Z,42.61
2023-04-29T02:19:26.601Z,42.71
2023-04-29T02:22:35.399Z,42.86
2023-04-29T02:25:41.033Z,42.53
2023-04-29T02:28:47.465Z,42.92
2023-04-29T02:31:56.124Z,43.03
2023-04-29T02:35:02.446Z,43.07
2023-04-29T02:38:08.185Z,42.36
2023-04-29T02:41:20.502Z,42.28
2023-04-29T02:44:27.257Z,42.39
2023-04-29T02:47:37.296Z,43.07
2023-04-29T02:50:42.889Z,43.00
2023-04-29T02:53:49.579Z,43.78
2023-04-29T02:56:55.129Z,43.12
2023-04-29T03:00:02.389Z,43.81
2023-04-29T03:03:11.097Z,43.76
2023-04-29T03:06:17.810Z,43.88
2023-04-29T03:09:23.940Z,43.31
2023-04-29T03:12:30.406Z,43.98
2023-04-29T03:15:35.847Z,44.07
2023-04-29T03:18:45.377Z,44.46
2023-04-29T03:21:52.778Z,44.04
2023-04-29T03:25:00.683Z,44.54
2023-04-29T03:28:07.455Z,44.53
2023-04-29T03:31:16.701Z,45.54
2023-04-29T03:34:25.598Z,44.96
2023-04-29T03:37:47.341Z,44.96
2023-04-29T03:41:01.070Z,44.96
2023-04-29T03:44:08.354Z,45.81
2023-04-29T03:47:14.214Z,46.04
2023-04-29T03:50:23.562Z,45.41
2023-04-29T03:53:29.396Z,46.85
2023-04-29T03:56:36.267Z,45.91
2023-04-29T03:59:42.126Z,46.41
2023-04-29T04:02:48.699Z,47.42
2023-04-29T04:05:57.248Z,47.34
2023-04-29T04:09:03.630Z,47.75
2023-04-29T04:12:12.023Z,46.99
2023-04-29T04:15:18.651Z,48.08
2023-04-29T04:18:24.482Z,48.12
2023-04-29T04:21:33.693Z,48.24
2023-04-29T04:24:44.387Z,46.96
2023-04-29T04:27:50.835Z,47.87
2023-04-29T04:31:46.231Z,47.26
2023-04-29T04:34:54.046Z,47.28
2023-04-29T04:38:02.452Z,47.95
2023-04-29T04:41:10.926Z,47.63
2023-04-29T04:44:17.757Z,47.40
2023-04-29T04:47:46.040Z,47.78
2023-04-29T04:51:12.228Z,48.85
2023-04-29T04:54:21.395Z,48.38
2023-04-29T04:57:31.288Z,47.61
2023-04-29T05:00:40.255Z,48.60
2023-04-29T05:03:46.340Z,47.59
2023-04-29T05:06:53.299Z,47.95
2023-04-29T05:10:03.895Z,47.91
2023-04-29T05:13:12.383Z,47.93
2023-04-29T05:16:18.873Z,48.07
2023-04-29T05:19:27.087Z,47.91
2023-04-29T05:22:32.597Z,48.11
2023-04-29T05:25:42.711Z,47.83
2023-04-29T05:28:48.559Z,48.79
2023-04-29T05:31:58.045Z,48.59
2023-04-29T05:35:04.795Z,49.56
2023-04-29T05:38:14.120Z,49.58
2023-04-29T05:41:28.569Z,49.49
2023-04-29T05:44:37.497Z,49.91
2023-04-29T05:47:44.811Z,50.28
2023-04-29T05:50:51.489Z,50.22
2023-04-29T05:53:57.139Z,50.35
2023-04-29T05:57:06.997Z,50.50
2023-04-29T06:00:14.231Z,50.93
2023-04-29T06:03:21.295Z,50.38
2023-04-29T06:06:32.627Z,50.88
2023-04-29T06:09:43.250Z,51.17
2023-04-29T06:12:52.731Z,50.74
2023-04-29T06:15:59.247Z,51.32
2023-04-29T06:19:06.649Z,51.01
2023-04-29T06:22:12.978Z,51.53
2023-04-29T06:25:23.733Z,52.02
2023-04-29T06:28:34.206Z,51.55
2023-04-29T06:31:40.069Z,51.76
2023-04-29T06:34:47.853Z,51.72
2023-04-29T06:38:08.694Z,52.31
2023-04-29T06:41:26.084Z,52.63
2023-04-29T06:44:36.942Z,53.30
2023-04-29T06:48:16.679Z,53.26
2023-04-29T06:51:28.292Z,53.03
2023-04-29T06:54:34.854Z,53.48
2023-04-29T06:57:40.566Z,53.33
2023-04-29T07:00:53.252Z,53.37
2023-04-29T07:04:01.196Z,54.17
2023-04-29T07:07:07.665Z,53.84
2023-04-29T07:10:13.922Z,53.77
2023-04-29T07:13:46.486Z,54.08
2023-04-29T07:16:57.308Z,54.23
2023-04-29T07:20:04.470Z,54.75
2023-04-29T07:23:10.034Z,54.38
2023-04-29T07:26:19.605Z,54.94
2023-04-29T07:29:25.045Z,55.44
2023-04-29T07:32:34.761Z,55.09
2023-04-29T07:35:44.829Z,54.62
2023-04-29T07:38:52.820Z,55.26
2023-04-29T07:42:00.312Z,55.04
2023-04-29T07:45:07.366Z,54.74
2023-04-29T07:48:16.113Z,55.12
2023-04-29T07:51:22.523Z,54.54
2023-04-29T07:54:28.098Z,54.89
2023-04-29T07:57:35.779Z,54.86
2023-04-29T08:00:41.287Z,54.94
2023-04-29T08:03:51.272Z,55.35
2023-04-29T08:06:58.554Z,55.05
2023-04-29T08:10:05.329Z,54.93
2023-04-29T08:13:11.071Z,54.80
2023-04-29T08:16:19.374Z,54.77
2023-04-29T08:19:27.806Z,54.94
2023-04-29T08:22:34.141Z,54.66
2023-04-29T08:25:39.622Z,53.52
2023-04-29T08:28:45.959Z,53.20
2023-04-29T08:31:52.281Z,53.10
2023-04-29T08:35:02.102Z,52.45
2023-04-29T08:38:09.508Z,51.69
2023-04-29T08:41:17.091Z,50.67
2023-04-29T08:44:22.860Z,50.99
2023-04-29T08:47:31.052Z,50.57
2023-04-29T08:50:44.209Z,49.96
2023-04-29T08:53:50.922Z,49.33
2023-04-29T08:56:59.697Z,48.90
2023-04-29T09:00:07.213Z,48.25
2023-04-29T09:03:23.220Z,47.54
2023-04-29T09:06:33.968Z,47.32
2023-04-29T09:09:42.281Z,46.30
2023-04-29T09:12:49.311Z,46.17
2023-04-29T09:15:55.013Z,45.60
2023-04-29T09:19:01.542Z,44.52
2023-04-29T09:22:11.454Z,43.80
2023-04-29T09:25:19.606Z,43.94
2023-04-29T09:28:25.835Z,44.04
2023-04-29T09:31:32.328Z,44.01
2023-04-29T09:34:41.359Z,43.81
2023-04-29T09:37:50.552Z,43.88
2023-04-29T09:40:59.159Z,43.90
2023-04-29T09:44:11.244Z,44.00
2023-04-29T09:47:17.634Z,44.07
2023-04-29T09:50:24.367Z,44.27
2023-04-29T09:53:38.326Z,43.50
2023-04-29T09:56:53.879Z,43.73
2023-04-29T09:59:59.418Z,43.31
2023-04-29T10:03:09.452Z,43.80
2023-04-29T10:06:18.004Z,43.62
2023-04-29T10:09:28.729Z,44.01
2023-04-29T10:12:39.095Z,44.66
2023-04-29T10:16:06.762Z,44.21
2023-04-29T10:19:22.056Z,44.08
2023-04-29T10:22:39.449Z,44.74
2023-04-29T10:25:51.436Z,45.27
2023-04-29T10:29:00.343Z,44.81
2023-04-29T10:32:07.923Z,44.61
2023-04-29T10:35:16.855Z,44.70
2023-04-29T10:38:34.190Z,45.68
2023-04-29T10:41:50.087Z,45.25
2023-04-29T10:45:27.666Z,45.38
2023-04-29T10:48:35.682Z,45.93
2023-04-29T10:51:45.848Z,45.65
2023-04-29T10:55:07.608Z,46.16
2023-04-29T10:58:40.142Z,46.32
2023-04-29T11:01:53.550Z,46.30
2023-04-29T11:05:13.734Z,46.63
2023-04-29T11:08:27.064Z,47.28
2023-04-29T11:12:03.573Z,47.28
2023-04-29T11:15:14.096Z,47.84
2023-04-29T11:18:19.644Z,47.72
2023-04-29T11:21:27.863Z,47.27
2023-04-29T11:24:33.612Z,48.01
2023-04-29T11:27:43.477Z,47.58
2023-04-29T11:30:54.052Z,47.54
2023-04-29T11:34:01.324Z,47.94
2023-04-29T11:37:08.829Z,47.67
2023-04-29T11:40:17.285Z,48.34
2023-04-29T11:43:25.489Z,48.49
2023-04-29T11:46:37.912Z,49.16
2023-04-29T11:49:43.587Z,49.07
2023-04-29T11:52:52.363Z,49.05
2023-04-29T11:55:59.379Z,49.31
2023-04-29T11:59:08.470Z,49.79
2023-04-29T12:02:18.482Z,50.03
2023-04-29T12:05:28.487Z,50.47
2023-04-29T12:08:35.177Z,50.19
2023-04-29T12:11:42.436Z,50.15
2023-04-29T12:14:49.114Z,49.70
2023-04-29T12:17:59.081Z,50.63
2023-04-29T12:21:05.337Z,50.66
2023-04-29T12:24:13.268Z,50.19
2023-04-29T12:27:19.909Z,50.31
2023-04-29T12:30:26.524Z,49.68
2023-04-29T12:33:34.937Z,49.02
2023-04-29T12:36:41.549Z,48.16
2023-04-29T12:39:47.475Z,47.59
2023-04-29T12:42:53.988Z,47.38
2023-04-29T12:46:05.597Z,46.31
2023-04-29T12:49:14.925Z,45.79
2023-04-29T12:52:20.537Z,45.83
2023-04-29T12:55:27.003Z,46.69
2023-04-29T12:58:34.085Z,46.51
2023-04-29T13:01:41.137Z,45.40
2023-04-29T13:04:49.613Z,45.79
2023-04-29T13:07:57.088Z,45.45
2023-04-29T13:11:02.752Z,45.67
2023-04-29T13:14:10.160Z,45.91
2023-04-29T13:17:15.761Z,45.70
2023-04-29T13:20:25.642Z,45.10
2023-04-29T13:23:31.644Z,45.85
2023-04-29T13:26:38.480Z,45.92
2023-04-29T13:29:44.294Z,45.70
2023-04-29T13:32:55.471Z,46.08
2023-04-29T13:36:07.434Z,46.26
2023-04-29T13:39:14.943Z,46.87
2023-04-29T13:42:25.392Z,46.76
2023-04-29T13:45:33.006Z,46.57
2023-04-29T13:49:03.461Z,46.24
2023-04-29T13:52:47.219Z,46.48
2023-04-29T14:02:23.422Z,46.51
2023-04-29T14:05:20.854Z,46.76
2023-04-29T14:08:29.186Z,46.30
2023-04-29T14:11:37.134Z,46.64
2023-04-29T14:14:42.845Z,45.75
2023-04-29T14:17:50.548Z,45.74
2023-04-29T14:20:56.550Z,45.57
2023-04-29T14:24:06.927Z,46.04
2023-04-29T14:27:12.627Z,46.19
2023-04-29T14:30:18.948Z,46.07
2023-04-29T14:33:24.753Z,46.66
2023-04-29T14:36:33.177Z,46.25
2023-04-29T14:39:41.473Z,46.76
2023-04-29T14:42:47.891Z,46.98
2023-04-29T14:45:53.705Z,47.35
2023-04-29T14:49:00.355Z,49.07
2023-04-29T14:52:06.072Z,51.07
2023-04-29T14:55:18.358Z,51.83
2023-04-29T14:58:24.114Z,55.01
2023-04-29T15:01:31.994Z,58.53
2023-04-29T15:04:40.050Z,60.88
2023-04-29T15:07:46.729Z,61.09
2023-04-29T15:10:54.998Z,62.52
2023-04-29T15:14:01.408Z,60.58
2023-04-29T15:17:07.061Z,59.60
2023-04-29T15:20:14.845Z,58.16
2023-04-29T15:23:20.420Z,59.61
2023-04-29T15:26:30.165Z,58.57
2023-04-29T15:29:37.807Z,58.11
2023-04-29T15:32:44.423Z,57.31
2023-04-29T15:35:52.434Z,58.31
2023-04-29T15:38:58.993Z,54.47
2023-04-29T15:42:09.786Z,54.96
2023-04-29T15:45:17.286Z,55.68
2023-04-29T15:48:22.921Z,54.74
2023-04-29T15:51:29.579Z,54.66
2023-04-29T15:54:35.042Z,55.68
2023-04-29T15:57:44.394Z,55.19
2023-04-29T16:00:50.018Z,56.12
2023-04-29T16:03:56.493Z,56.88
2023-04-29T16:07:05.500Z,55.74
2023-04-29T16:10:12.962Z,56.86
2023-04-29T16:13:21.348Z,56.28
2023-04-29T16:16:28.288Z,58.35
2023-04-29T16:19:36.634Z,61.79
2023-04-29T16:22:43.761Z,64.33
2023-04-29T16:25:49.840Z,65.83
2023-04-29T16:28:59.564Z,67.42
2023-04-29T16:32:05.277Z,68.19
2023-04-29T16:35:13.271Z,68.83
2023-04-29T16:38:18.942Z,68.73
2023-04-29T16:41:26.380Z,70.30
2023-04-29T16:44:34.789Z,68.35
2023-04-29T16:47:41.888Z,66.64
2023-04-29T16:50:48.647Z,66.58
2023-04-29T16:53:57.190Z,67.21
2023-04-29T16:57:02.747Z,66.71
2023-04-29T17:00:14.266Z,65.67
2023-04-29T17:03:20.254Z,65.64
2023-04-29T17:06:28.056Z,66.55
2023-04-29T17:09:35.292Z,66.65
2023-04-29T17:12:43.009Z,66.90
2023-04-29T17:15:52.099Z,67.05
2023-04-29T17:18:58.619Z,66.54
2023-04-29T17:22:04.371Z,67.39
2023-04-29T17:25:14.052Z,66.72
2023-04-29T17:28:21.148Z,65.70
2023-04-29T17:31:45.339Z,66.51
2023-04-29T17:34:52.386Z,65.63
2023-04-29T17:37:59.733Z,65.98
2023-04-29T17:41:06.194Z,65.27
2023-04-29T17:44:12.911Z,65.18
2023-04-29T17:47:22.000Z,66.03
2023-04-29T17:50:28.656Z,66.57
2023-04-29T17:53:34.512Z,66.89
2023-04-29T17:56:41.195Z,66.25
2023-04-29T17:59:47.410Z,65.70
2023-04-29T18:02:57.074Z,65.69
2023-04-29T18:06:03.567Z,65.20
2023-04-29T18:09:10.126Z,65.05
2023-04-29T18:12:15.709Z,64.92
2023-04-29T18:15:23.427Z,65.17
2023-04-29T18:18:31.857Z,65.46
2023-04-29T18:21:38.429Z,65.10
2023-04-29T18:24:44.370Z,65.69
2023-04-29T18:27:54.331Z,65.44
2023-04-29T18:31:03.336Z,65.65
2023-04-29T18:34:13.268Z,66.09
2023-04-29T18:37:19.236Z,65.99
2023-04-29T18:40:26.068Z,66.09
2023-04-29T18:43:32.087Z,66.37
2023-04-29T18:46:39.608Z,65.82
2023-04-29T18:49:48.874Z,66.47
2023-04-29T18:52:56.998Z,66.34
2023-04-29T18:56:03.760Z,66.27
2023-04-29T18:59:14.851Z,66.41
2023-04-29T19:02:21.964Z,66.65
2023-04-29T19:05:33.151Z,66.81
2023-04-29T19:08:39.798Z,67.27
2023-04-29T19:11:47.640Z,67.16
2023-04-29T19:14:58.703Z,67.40
2023-04-29T19:18:06.356Z,67.19
2023-04-29T19:21:17.726Z,67.94
2023-04-29T19:24:26.394Z,67.83
2023-04-29T19:27:32.308Z,68.81
2023-04-29T19:30:40.496Z,69.10
2023-04-29T19:33:46.359Z,69.37
2023-04-29T19:36:59.541Z,70.06
2023-04-29T19:40:05.987Z,71.03
2023-04-29T19:43:14.094Z,71.71
2023-04-29T19:46:23.252Z,72.38
2023-04-29T19:49:29.974Z,72.38
2023-04-29T19:52:38.781Z,73.04
2023-04-29T19:55:45.865Z,73.61
2023-04-29T19:58:52.321Z,73.58
2023-04-29T20:01:59.301Z,74.30
2023-04-29T20:05:05.297Z,74.36
2023-04-29T20:08:15.072Z,73.63
2023-04-29T20:11:21.340Z,73.86
2023-04-29T20:14:28.715Z,74.87
2023-04-29T20:17:34.622Z,75.06
2023-04-29T20:20:41.734Z,74.93
2023-04-29T20:23:50.348Z,75.00
2023-04-29T20:26:57.021Z,76.00
2023-04-29T20:30:04.968Z,75.26
2023-04-29T20:33:12.491Z,76.02
2023-04-29T20:36:18.956Z,76.36
2023-04-29T20:39:28.971Z,76.48
2023-04-29T20:42:35.254Z,76.88
2023-04-29T20:45:41.915Z,77.03
2023-04-29T20:48:47.697Z,76.98
2023-04-29T20:51:54.584Z,76.04
2023-04-29T20:55:05.062Z,76.07
2023-04-29T20:58:12.380Z,76.76
2023-04-29T21:01:19.314Z,76.70
2023-04-29T21:04:26.340Z,77.41
2023-04-29T21:07:32.084Z,77.00
2023-04-29T21:10:42.230Z,76.17
2023-04-29T21:13:51.297Z,76.52
2023-04-29T21:16:57.963Z,76.84
2023-04-29T21:20:03.742Z,76.31
2023-04-29T21:23:10.472Z,76.55
2023-04-29T21:26:19.187Z,76.52
2023-04-29T21:29:25.656Z,76.74
2023-04-29T21:32:33.199Z,76.17
2023-04-29T21:35:40.137Z,75.54
2023-04-29T21:38:46.204Z,75.90
2023-04-29T21:41:56.045Z,76.55
2023-04-29T21:45:04.023Z,76.17
2023-04-29T21:48:20.426Z,75.41
2023-04-29T21:51:26.762Z,75.62
2023-04-29T21:54:33.117Z,75.09
2023-04-29T21:57:44.808Z,75.39
2023-04-29T22:00:58.724Z,75.41
2023-04-29T22:04:04.438Z,75.45
2023-04-29T22:07:11.146Z,76.17
2023-04-29T22:10:16.693Z,74.95
2023-04-29T22:13:26.154Z,75.39
2023-04-29T22:16:31.766Z,75.48
2023-04-29T22:19:38.396Z,74.57
2023-04-29T22:22:44.555Z,74.15
2023-04-29T22:25:51.200Z,74.56
2023-04-29T22:28:59.756Z,73.91
2023-04-29T22:32:06.287Z,75.12
2023-04-29T22:35:12.275Z,74.21
2023-04-29T22:38:18.886Z,74.72
2023-04-29T22:41:24.775Z,74.89
2023-04-29T22:44:34.012Z,74.66
2023-04-29T22:47:40.093Z,74.82
2023-04-29T22:50:54.909Z,75.12
2023-04-29T22:54:00.708Z,74.43
2023-04-29T22:57:07.745Z,74.58
2023-04-29T23:00:17.987Z,74.69
2023-04-29T23:03:24.437Z,74.93
2023-04-29T23:06:30.147Z,75.34
2023-04-29T23:09:36.861Z,75.54
2023-04-29T23:12:42.594Z,75.10
2023-04-29T23:15:52.508Z,74.74
2023-04-29T23:18:58.179Z,75.38
2023-04-29T23:22:07.548Z,75.82
2023-04-29T23:25:13.194Z,76.15
2023-04-29T23:28:20.004Z,76.00
2023-04-29T23:31:28.311Z,75.80
2023-04-29T23:34:34.695Z,74.87
2023-04-29T23:37:40.323Z,74.54
2023-04-29T23:40:46.694Z,75.10
2023-04-29T23:43:52.623Z,74.31
2023-04-29T23:47:01.783Z,75.01
2023-04-29T23:50:08.446Z,74.72
2023-04-29T23:53:16.448Z,73.92
2023-04-29T23:56:21.986Z,73.98
2023-04-29T23:59:28.434Z,74.85
